sensor_id;sensor_type;location;lat;lon;timestamp;temperature;humidity
21419;DHT22;10870;51.384;10.316;2022-09-03T01:14:30;15.70;1.00
21419;DHT22;10870;51.384;10.316;2022-09-03T01:16:39;15.70;1.00
21419;DHT22;10870;51.384;10.316;2022-09-03T01:18:54;15.60;1.00
21419;DHT22;10870;51.384;10.316;2022-09-03T01:28:04;15.50;1.00
21419;DHT22;10870;51.384;10.316;2022-09-03T01:30:09;15.50;1.00
21419;DHT22;10870;51.384;10.316;2022-09-03T01:32:24;15.50;1.00
21419;DHT22;10870;51.384;10.316;2022-09-03T01:34:35;15.40;1.00
21419;DHT22;10870;51.384;10.316;2022-09-03T01:37:03;15.50;1.00
21419;DHT22;10870;51.384;10.316;2022-09-03T01:39:10;15.40;1.00
21419;DHT22;10870;51.384;10.316;2022-09-03T01:43:39;15.40;1.00
21419;DHT22;10870;51.384;10.316;2022-09-03T01:45:52;15.30;1.00
21419;DHT22;10870;51.384;10.316;2022-09-03T01:50:19;15.30;1.00
21419;DHT22;10870;51.384;10.316;2022-09-03T01:52:24;15.30;1.00
21419;DHT22;10870;51.384;10.316;2022-09-03T01:54:52;15.30;1.00
21419;DHT22;10870;51.384;10.316;2022-09-03T02:01:45;15.20;1.00
21419;DHT22;10870;51.384;10.316;2022-09-03T02:03:48;15.20;1.00
21419;DHT22;10870;51.384;10.316;2022-09-03T02:05:50;15.10;1.00
21419;DHT22;10870;51.384;10.316;2022-09-03T02:07:56;15.10;1.00
21419;DHT22;10870;51.384;10.316;2022-09-03T02:09:59;15.10;1.00
21419;DHT22;10870;51.384;10.316;2022-09-03T02:14:02;15.10;1.00
21419;DHT22;10870;51.384;10.316;2022-09-03T02:16:08;15.10;1.00
21419;DHT22;10870;51.384;10.316;2022-09-03T02:18:20;15.10;1.00
21419;DHT22;10870;51.384;10.316;2022-09-03T02:20:24;15.00;1.00
21419;DHT22;10870;51.384;10.316;2022-09-03T02:22:26;14.80;1.00
21419;DHT22;10870;51.384;10.316;2022-09-03T02:24:29;15.00;1.00
21419;DHT22;10870;51.384;10.316;2022-09-03T02:26:29;15.00;1.00
21419;DHT22;10870;51.384;10.316;2022-09-03T02:28:30;15.00;1.00
21419;DHT22;10870;51.384;10.316;2022-09-03T02:30:34;15.00;1.00
21419;DHT22;10870;51.384;10.316;2022-09-03T02:32:37;15.00;1.00
21419;DHT22;10870;51.384;10.316;2022-09-03T02:34:40;15.00;1.00
21419;DHT22;10870;51.384;10.316;2022-09-03T02:36:44;15.00;1.00
21419;DHT22;10870;51.384;10.316;2022-09-03T02:38:49;14.90;1.00
21419;DHT22;10870;51.384;10.316;2022-09-03T02:40:50;15.00;1.00
21419;DHT22;10870;51.384;10.316;2022-09-03T02:42:56;15.00;1.00
21419;DHT22;10870;51.384;10.316;2022-09-03T02:44:59;14.90;1.00
21419;DHT22;10870;51.384;10.316;2022-09-03T02:47:03;14.90;1.00
21419;DHT22;10870;51.384;10.316;2022-09-03T02:49:07;14.90;1.00
21419;DHT22;10870;51.384;10.316;2022-09-03T02:51:07;14.90;1.00
21419;DHT22;10870;51.384;10.316;2022-09-03T02:53:08;14.90;1.00
21419;DHT22;10870;51.384;10.316;2022-09-03T02:55:09;14.90;1.00
21419;DHT22;10870;51.384;10.316;2022-09-03T02:57:11;14.90;1.00
21419;DHT22;10870;51.384;10.316;2022-09-03T02:59:12;14.90;1.00
21419;DHT22;10870;51.384;10.316;2022-09-03T03:01:13;14.80;1.00
21419;DHT22;10870;51.384;10.316;2022-09-03T03:03:14;14.80;1.00
21419;DHT22;10870;51.384;10.316;2022-09-03T03:05:18;14.80;1.00
21419;DHT22;10870;51.384;10.316;2022-09-03T03:07:21;14.80;1.00
21419;DHT22;10870;51.384;10.316;2022-09-03T03:09:22;14.80;1.00
21419;DHT22;10870;51.384;10.316;2022-09-03T03:11:25;14.70;1.00
21419;DHT22;10870;51.384;10.316;2022-09-03T03:13:27;14.70;8.60
21419;DHT22;10870;51.384;10.316;2022-09-03T03:15:28;14.70;9.20
21419;DHT22;10870;51.384;10.316;2022-09-03T03:17:28;14.60;60.30
21419;DHT22;10870;51.384;10.316;2022-09-03T03:19:31;14.60;39.80
21419;DHT22;10870;51.384;10.316;2022-09-03T03:21:32;14.60;46.70
21419;DHT22;10870;51.384;10.316;2022-09-03T03:23:35;14.60;86.90
21419;DHT22;10870;51.384;10.316;2022-09-03T03:25:38;14.50;99.90
21419;DHT22;10870;51.384;10.316;2022-09-03T03:27:39;14.50;99.90
21419;DHT22;10870;51.384;10.316;2022-09-03T03:29:43;14.50;99.90
21419;DHT22;10870;51.384;10.316;2022-09-03T03:31:43;14.50;99.90
21419;DHT22;10870;51.384;10.316;2022-09-03T03:33:48;14.50;99.90
21419;DHT22;10870;51.384;10.316;2022-09-03T03:35:52;14.40;99.90
21419;DHT22;10870;51.384;10.316;2022-09-03T03:37:58;14.40;99.90
21419;DHT22;10870;51.384;10.316;2022-09-03T03:40:02;14.40;99.90
21419;DHT22;10870;51.384;10.316;2022-09-03T03:42:02;14.40;99.90
21419;DHT22;10870;51.384;10.316;2022-09-03T03:44:04;14.30;99.90
21419;DHT22;10870;51.384;10.316;2022-09-03T03:46:05;14.30;99.90
21419;DHT22;10870;51.384;10.316;2022-09-03T03:48:09;14.30;99.90
21419;DHT22;10870;51.384;10.316;2022-09-03T03:50:10;14.20;1.00
21419;DHT22;10870;51.384;10.316;2022-09-03T03:52:13;14.20;1.00
21419;DHT22;10870;51.384;10.316;2022-09-03T03:54:14;14.20;1.00
21419;DHT22;10870;51.384;10.316;2022-09-03T03:56:19;14.20;1.00
21419;DHT22;10870;51.384;10.316;2022-09-03T03:58:20;14.20;99.90
21419;DHT22;10870;51.384;10.316;2022-09-03T04:00:20;14.20;1.00
21419;DHT22;10870;51.384;10.316;2022-09-03T04:02:23;14.20;1.00
21419;DHT22;10870;51.384;10.316;2022-09-03T04:04:27;14.20;99.90
21419;DHT22;10870;51.384;10.316;2022-09-03T04:06:27;14.20;1.00
21419;DHT22;10870;51.384;10.316;2022-09-03T04:08:28;14.20;1.00
21419;DHT22;10870;51.384;10.316;2022-09-03T04:10:31;14.10;1.00
21419;DHT22;10870;51.384;10.316;2022-09-03T04:12:32;14.10;1.00
21419;DHT22;10870;51.384;10.316;2022-09-03T04:14:33;14.10;1.00
21419;DHT22;10870;51.384;10.316;2022-09-03T04:16:34;14.10;1.00
21419;DHT22;10870;51.384;10.316;2022-09-03T04:18:35;14.10;1.00
21419;DHT22;10870;51.384;10.316;2022-09-03T04:20:36;14.10;1.00
21419;DHT22;10870;51.384;10.316;2022-09-03T04:22:37;14.10;1.00
21419;DHT22;10870;51.384;10.316;2022-09-03T04:24:38;14.00;1.00
21419;DHT22;10870;51.384;10.316;2022-09-03T04:26:39;14.00;1.00
21419;DHT22;10870;51.384;10.316;2022-09-03T04:28:42;13.90;1.00
21419;DHT22;10870;51.384;10.316;2022-09-03T04:30:47;13.90;1.00
21419;DHT22;10870;51.384;10.316;2022-09-03T04:32:50;13.90;1.00
21419;DHT22;10870;51.384;10.316;2022-09-03T04:34:54;13.90;1.00
21419;DHT22;10870;51.384;10.316;2022-09-03T04:36:55;13.80;99.40
21419;DHT22;10870;51.384;10.316;2022-09-03T04:38:58;13.80;95.40
21419;DHT22;10870;51.384;10.316;2022-09-03T04:41:00;13.80;99.90
21419;DHT22;10870;51.384;10.316;2022-09-03T04:43:01;13.80;99.90
21419;DHT22;10870;51.384;10.316;2022-09-03T04:45:01;13.70;99.90
21419;DHT22;10870;51.384;10.316;2022-09-03T04:47:07;13.70;99.90
21419;DHT22;10870;51.384;10.316;2022-09-03T04:49:08;13.70;1.00
21419;DHT22;10870;51.384;10.316;2022-09-03T04:51:12;13.70;1.00
21419;DHT22;10870;51.384;10.316;2022-09-03T04:53:14;13.70;1.00
21419;DHT22;10870;51.384;10.316;2022-09-03T04:55:14;13.70;1.00
21419;DHT22;10870;51.384;10.316;2022-09-03T04:57:16;13.70;1.00
21419;DHT22;10870;51.384;10.316;2022-09-03T04:59:17;13.70;1.00
21419;DHT22;10870;51.384;10.316;2022-09-03T05:01:21;13.60;1.00
21419;DHT22;10870;51.384;10.316;2022-09-03T05:03:24;13.60;1.00
21419;DHT22;10870;51.384;10.316;2022-09-03T05:05:30;13.60;1.00
21419;DHT22;10870;51.384;10.316;2022-09-03T05:07:32;13.60;1.00
21419;DHT22;10870;51.384;10.316;2022-09-03T05:09:38;13.60;1.00
21419;DHT22;10870;51.384;10.316;2022-09-03T05:11:41;13.30;99.90
21419;DHT22;10870;51.384;10.316;2022-09-03T05:13:41;13.50;99.90
21419;DHT22;10870;51.384;10.316;2022-09-03T05:15:42;13.50;1.00
21419;DHT22;10870;51.384;10.316;2022-09-03T05:17:44;13.50;1.00
21419;DHT22;10870;51.384;10.316;2022-09-03T05:19:45;13.50;1.00
21419;DHT22;10870;51.384;10.316;2022-09-03T05:21:48;13.50;9.90
21419;DHT22;10870;51.384;10.316;2022-09-03T05:23:51;13.50;1.00
21419;DHT22;10870;51.384;10.316;2022-09-03T05:25:59;13.50;1.00
21419;DHT22;10870;51.384;10.316;2022-09-03T05:28:00;13.50;1.00
21419;DHT22;10870;51.384;10.316;2022-09-03T05:30:01;13.50;99.90
21419;DHT22;10870;51.384;10.316;2022-09-03T05:32:02;13.50;1.00
21419;DHT22;10870;51.384;10.316;2022-09-03T05:34:04;13.50;99.90
21419;DHT22;10870;51.384;10.316;2022-09-03T05:36:06;13.50;1.00
21419;DHT22;10870;51.384;10.316;2022-09-03T05:38:09;13.50;1.00
21419;DHT22;10870;51.384;10.316;2022-09-03T05:40:16;13.50;1.00
21419;DHT22;10870;51.384;10.316;2022-09-03T05:42:17;13.50;1.00
21419;DHT22;10870;51.384;10.316;2022-09-03T05:44:19;13.50;1.00
21419;DHT22;10870;51.384;10.316;2022-09-03T05:46:24;13.50;99.90
21419;DHT22;10870;51.384;10.316;2022-09-03T05:48:39;13.50;1.00
21419;DHT22;10870;51.384;10.316;2022-09-03T05:50:39;13.50;1.00
21419;DHT22;10870;51.384;10.316;2022-09-03T05:52:43;13.60;1.00
21419;DHT22;10870;51.384;10.316;2022-09-03T05:54:44;13.60;1.00
21419;DHT22;10870;51.384;10.316;2022-09-03T05:56:46;13.60;1.00
21419;DHT22;10870;51.384;10.316;2022-09-03T05:58:50;13.60;1.00
21419;DHT22;10870;51.384;10.316;2022-09-03T06:00:57;13.70;1.00
21419;DHT22;10870;51.384;10.316;2022-09-03T06:02:58;13.70;1.00
21419;DHT22;10870;51.384;10.316;2022-09-03T06:05:01;13.70;1.00
21419;DHT22;10870;51.384;10.316;2022-09-03T06:07:02;13.80;1.00
21419;DHT22;10870;51.384;10.316;2022-09-03T06:09:07;13.80;1.00
21419;DHT22;10870;51.384;10.316;2022-09-03T06:11:08;13.90;99.90
21419;DHT22;10870;51.384;10.316;2022-09-03T06:13:11;13.90;99.90
21419;DHT22;10870;51.384;10.316;2022-09-03T06:15:12;14.00;99.90
21419;DHT22;10870;51.384;10.316;2022-09-03T06:17:15;14.00;72.60
21419;DHT22;10870;51.384;10.316;2022-09-03T06:19:16;14.10;1.00
21419;DHT22;10870;51.384;10.316;2022-09-03T06:21:17;14.10;1.00
21419;DHT22;10870;51.384;10.316;2022-09-03T06:23:17;14.20;99.90
21419;DHT22;10870;51.384;10.316;2022-09-03T06:25:18;14.30;18.10
21419;DHT22;10870;51.384;10.316;2022-09-03T06:27:21;14.30;1.00
21419;DHT22;10870;51.384;10.316;2022-09-03T06:29:22;14.30;1.00
21419;DHT22;10870;51.384;10.316;2022-09-03T06:31:25;14.30;1.00
21419;DHT22;10870;51.384;10.316;2022-09-03T06:33:29;14.40;1.00
21419;DHT22;10870;51.384;10.316;2022-09-03T06:35:32;14.40;1.00
21419;DHT22;10870;51.384;10.316;2022-09-03T06:37:38;14.50;1.00
21419;DHT22;10870;51.384;10.316;2022-09-03T06:39:41;14.50;1.00
21419;DHT22;10870;51.384;10.316;2022-09-03T06:41:44;14.60;1.00
21419;DHT22;10870;51.384;10.316;2022-09-03T06:43:56;14.60;1.00
21419;DHT22;10870;51.384;10.316;2022-09-03T06:46:00;14.60;99.90
21419;DHT22;10870;51.384;10.316;2022-09-03T06:48:01;14.70;99.90
21419;DHT22;10870;51.384;10.316;2022-09-03T06:50:04;14.70;1.00
21419;DHT22;10870;51.384;10.316;2022-09-03T06:52:07;14.80;1.00
21419;DHT22;10870;51.384;10.316;2022-09-03T06:54:09;14.90;1.00
21419;DHT22;10870;51.384;10.316;2022-09-03T06:56:16;14.90;99.90
21419;DHT22;10870;51.384;10.316;2022-09-03T06:58:17;15.00;99.90
21419;DHT22;10870;51.384;10.316;2022-09-03T07:00:17;15.10;99.90
21419;DHT22;10870;51.384;10.316;2022-09-03T07:02:21;15.10;99.90
21419;DHT22;10870;51.384;10.316;2022-09-03T07:04:29;15.10;99.90
21419;DHT22;10870;51.384;10.316;2022-09-03T07:06:32;15.20;99.90
21419;DHT22;10870;51.384;10.316;2022-09-03T07:08:33;15.30;99.90
21419;DHT22;10870;51.384;10.316;2022-09-03T07:10:35;15.30;99.90
21419;DHT22;10870;51.384;10.316;2022-09-03T07:12:37;15.30;99.90
21419;DHT22;10870;51.384;10.316;2022-09-03T07:14:37;15.40;97.90
21419;DHT22;10870;51.384;10.316;2022-09-03T07:16:38;15.50;99.90
21419;DHT22;10870;51.384;10.316;2022-09-03T07:18:42;15.50;99.90
21419;DHT22;10870;51.384;10.316;2022-09-03T07:20:44;15.60;99.90
21419;DHT22;10870;51.384;10.316;2022-09-03T07:22:44;15.60;95.40
21419;DHT22;10870;51.384;10.316;2022-09-03T07:24:45;15.70;67.60
21419;DHT22;10870;51.384;10.316;2022-09-03T07:26:47;15.70;90.00
21419;DHT22;10870;51.384;10.316;2022-09-03T07:28:48;15.80;43.90
21419;DHT22;10870;51.384;10.316;2022-09-03T07:30:50;15.90;94.40
